sensor_id;sensor_type;location;lat;lon;timestamp;temperature;humidity
18690;DHT22;9782;52.930;15.562;2022-07-24T00:01:10;13.60;1.00
18690;DHT22;9782;52.930;15.562;2022-07-24T00:03:37;13.50;1.00
18690;DHT22;9782;52.930;15.562;2022-07-24T00:06:04;13.50;1.00
18690;DHT22;9782;52.930;15.562;2022-07-24T00:08:31;13.40;1.00
18690;DHT22;9782;52.930;15.562;2022-07-24T00:10:58;13.40;1.00
18690;DHT22;9782;52.930;15.562;2022-07-24T00:13:25;13.40;1.00
18690;DHT22;9782;52.930;15.562;2022-07-24T00:15:52;13.30;1.00
18690;DHT22;9782;52.930;15.562;2022-07-24T00:18:21;13.30;1.00
18690;DHT22;9782;52.930;15.562;2022-07-24T00:20:48;13.30;1.00
18690;DHT22;9782;52.930;15.562;2022-07-24T00:23:15;13.30;1.00
18690;DHT22;9782;52.930;15.562;2022-07-24T00:25:42;13.30;99.90
18690;DHT22;9782;52.930;15.562;2022-07-24T00:28:09;13.30;99.90
18690;DHT22;9782;52.930;15.562;2022-07-24T00:30:36;13.30;99.90
18690;DHT22;9782;52.930;15.562;2022-07-24T00:33:03;13.30;99.90
18690;DHT22;9782;52.930;15.562;2022-07-24T00:35:32;13.30;99.90
18690;DHT22;9782;52.930;15.562;2022-07-24T00:37:59;13.30;99.90
18690;DHT22;9782;52.930;15.562;2022-07-24T00:40:27;13.30;99.90
18690;DHT22;9782;52.930;15.562;2022-07-24T00:42:55;13.30;99.90
18690;DHT22;9782;52.930;15.562;2022-07-24T00:45:23;13.20;99.90
18690;DHT22;9782;52.930;15.562;2022-07-24T00:47:50;13.20;99.90
18690;DHT22;9782;52.930;15.562;2022-07-24T00:50:18;13.20;99.90
18690;DHT22;9782;52.930;15.562;2022-07-24T00:52:46;13.10;99.90
18690;DHT22;9782;52.930;15.562;2022-07-24T00:55:14;13.10;99.90
18690;DHT22;9782;52.930;15.562;2022-07-24T00:57:41;13.10;99.90
18690;DHT22;9782;52.930;15.562;2022-07-24T01:00:12;13.10;99.90
18690;DHT22;9782;52.930;15.562;2022-07-24T01:02:39;13.00;1.00
18690;DHT22;9782;52.930;15.562;2022-07-24T01:05:08;13.10;1.00
18690;DHT22;9782;52.930;15.562;2022-07-24T01:07:35;13.10;1.00
18690;DHT22;9782;52.930;15.562;2022-07-24T01:10:06;13.00;1.00
18690;DHT22;9782;52.930;15.562;2022-07-24T01:12:34;13.10;1.00
18690;DHT22;9782;52.930;15.562;2022-07-24T01:15:03;13.00;1.00
18690;DHT22;9782;52.930;15.562;2022-07-24T01:17:31;13.00;1.00
18690;DHT22;9782;52.930;15.562;2022-07-24T01:19:59;12.90;1.00
18690;DHT22;9782;52.930;15.562;2022-07-24T01:22:28;12.90;1.00
18690;DHT22;9782;52.930;15.562;2022-07-24T01:24:55;12.90;1.00
18690;DHT22;9782;52.930;15.562;2022-07-24T01:27:23;12.80;1.00
18690;DHT22;9782;52.930;15.562;2022-07-24T01:29:51;12.80;1.00
18690;DHT22;9782;52.930;15.562;2022-07-24T01:32:18;12.80;1.00
18690;DHT22;9782;52.930;15.562;2022-07-24T01:34:45;12.80;1.00
18690;DHT22;9782;52.930;15.562;2022-07-24T01:37:12;12.80;1.00
18690;DHT22;9782;52.930;15.562;2022-07-24T01:39:41;12.70;1.00
18690;DHT22;9782;52.930;15.562;2022-07-24T01:42:08;12.70;1.00
18690;DHT22;9782;52.930;15.562;2022-07-24T01:44:35;12.70;1.00
18690;DHT22;9782;52.930;15.562;2022-07-24T01:47:02;12.60;1.00
18690;DHT22;9782;52.930;15.562;2022-07-24T01:49:29;12.60;1.00
18690;DHT22;9782;52.930;15.562;2022-07-24T01:51:56;12.60;1.00
18690;DHT22;9782;52.930;15.562;2022-07-24T01:54:23;12.50;1.00
18690;DHT22;9782;52.930;15.562;2022-07-24T01:56:52;12.50;1.00
18690;DHT22;9782;52.930;15.562;2022-07-24T01:59:19;12.50;1.00
18690;DHT22;9782;52.930;15.562;2022-07-24T02:01:46;12.50;1.00
18690;DHT22;9782;52.930;15.562;2022-07-24T02:04:13;12.40;1.00
18690;DHT22;9782;52.930;15.562;2022-07-24T02:06:40;12.50;1.00
18690;DHT22;9782;52.930;15.562;2022-07-24T02:09:07;12.40;1.00
18690;DHT22;9782;52.930;15.562;2022-07-24T02:11:34;12.40;84.00
18690;DHT22;9782;52.930;15.562;2022-07-24T02:14:03;12.40;99.90
18690;DHT22;9782;52.930;15.562;2022-07-24T02:16:30;12.40;99.90
18690;DHT22;9782;52.930;15.562;2022-07-24T02:18:57;12.40;99.90
18690;DHT22;9782;52.930;15.562;2022-07-24T02:21:24;12.40;99.90
18690;DHT22;9782;52.930;15.562;2022-07-24T02:23:51;12.40;99.90
18690;DHT22;9782;52.930;15.562;2022-07-24T02:26:18;12.40;99.90
18690;DHT22;9782;52.930;15.562;2022-07-24T02:28:45;12.40;99.90
18690;DHT22;9782;52.930;15.562;2022-07-24T02:31:14;12.30;99.90
18690;DHT22;9782;52.930;15.562;2022-07-24T02:33:41;12.30;99.90
18690;DHT22;9782;52.930;15.562;2022-07-24T02:36:08;12.30;99.90
18690;DHT22;9782;52.930;15.562;2022-07-24T02:38:36;12.30;99.90
18690;DHT22;9782;52.930;15.562;2022-07-24T02:41:03;12.30;99.90
18690;DHT22;9782;52.930;15.562;2022-07-24T02:43:30;12.20;99.90
18690;DHT22;9782;52.930;15.562;2022-07-24T02:45:57;12.20;99.90
18690;DHT22;9782;52.930;15.562;2022-07-24T02:48:26;12.30;99.90
18690;DHT22;9782;52.930;15.562;2022-07-24T02:50:53;12.20;99.90
18690;DHT22;9782;52.930;15.562;2022-07-24T02:53:20;12.20;1.00
18690;DHT22;9782;52.930;15.562;2022-07-24T02:55:47;12.20;1.00
18690;DHT22;9782;52.930;15.562;2022-07-24T02:58:14;12.20;1.00
18690;DHT22;9782;52.930;15.562;2022-07-24T03:00:42;12.20;1.00
18690;DHT22;9782;52.930;15.562;2022-07-24T03:03:09;12.20;1.00
18690;DHT22;9782;52.930;15.562;2022-07-24T03:05:37;12.20;1.00
18690;DHT22;9782;52.930;15.562;2022-07-24T03:08:05;12.20;1.00
18690;DHT22;9782;52.930;15.562;2022-07-24T03:10:32;12.20;1.00
18690;DHT22;9782;52.930;15.562;2022-07-24T03:12:59;12.20;1.00
18690;DHT22;9782;52.930;15.562;2022-07-24T03:15:26;12.30;1.00
18690;DHT22;9782;52.930;15.562;2022-07-24T03:17:55;12.30;20.50
18690;DHT22;9782;52.930;15.562;2022-07-24T03:20:24;12.30;99.90
18690;DHT22;9782;52.930;15.562;2022-07-24T03:23:04;12.40;99.90
18690;DHT22;9782;52.930;15.562;2022-07-24T03:25:31;12.40;1.00
18690;DHT22;9782;52.930;15.562;2022-07-24T03:27:58;12.40;99.90
18690;DHT22;9782;52.930;15.562;2022-07-24T03:30:26;12.50;1.00
18690;DHT22;9782;52.930;15.562;2022-07-24T03:32:54;12.50;1.00
18690;DHT22;9782;52.930;15.562;2022-07-24T03:35:21;12.60;1.00
18690;DHT22;9782;52.930;15.562;2022-07-24T03:37:53;12.70;1.00
18690;DHT22;9782;52.930;15.562;2022-07-24T03:40:24;12.80;1.00
18690;DHT22;9782;52.930;15.562;2022-07-24T03:42:51;12.80;1.00
18690;DHT22;9782;52.930;15.562;2022-07-24T03:45:18;12.90;1.00
18690;DHT22;9782;52.930;15.562;2022-07-24T03:47:45;13.00;1.00
18690;DHT22;9782;52.930;15.562;2022-07-24T03:50:12;13.00;1.00
18690;DHT22;9782;52.930;15.562;2022-07-24T03:52:39;13.10;1.00
18690;DHT22;9782;52.930;15.562;2022-07-24T03:55:08;13.10;1.00
18690;DHT22;9782;52.930;15.562;2022-07-24T04:00:13;13.30;1.00
18690;DHT22;9782;52.930;15.562;2022-07-24T04:02:41;13.90;99.90
18690;DHT22;9782;52.930;15.562;2022-07-24T04:05:11;14.70;99.90
18690;DHT22;9782;52.930;15.562;2022-07-24T04:07:39;15.60;92.10
18690;DHT22;9782;52.930;15.562;2022-07-24T04:10:09;16.50;99.90
18690;DHT22;9782;52.930;15.562;2022-07-24T04:12:36;17.50;1.00
18690;DHT22;9782;52.930;15.562;2022-07-24T04:15:04;18.30;99.90
18690;DHT22;9782;52.930;15.562;2022-07-24T04:17:31;19.10;1.00
18690;DHT22;9782;52.930;15.562;2022-07-24T04:20:00;19.80;1.00
18690;DHT22;9782;52.930;15.562;2022-07-24T04:22:37;20.40;99.90
18690;DHT22;9782;52.930;15.562;2022-07-24T04:25:12;21.10;99.90
18690;DHT22;9782;52.930;15.562;2022-07-24T04:27:39;21.70;1.00
18690;DHT22;9782;52.930;15.562;2022-07-24T04:30:12;22.30;99.90
18690;DHT22;9782;52.930;15.562;2022-07-24T04:32:43;22.90;1.00
18690;DHT22;9782;52.930;15.562;2022-07-24T04:35:13;23.50;1.00
18690;DHT22;9782;52.930;15.562;2022-07-24T04:37:40;24.00;1.00
18690;DHT22;9782;52.930;15.562;2022-07-24T04:40:11;24.50;99.90
18690;DHT22;9782;52.930;15.562;2022-07-24T04:42:43;24.90;68.20
18690;DHT22;9782;52.930;15.562;2022-07-24T04:45:10;25.40;1.00
18690;DHT22;9782;52.930;15.562;2022-07-24T04:47:41;25.90;1.00
18690;DHT22;9782;52.930;15.562;2022-07-24T04:50:08;26.40;1.00
18690;DHT22;9782;52.930;15.562;2022-07-24T04:52:42;26.70;1.00
18690;DHT22;9782;52.930;15.562;2022-07-24T04:55:14;26.90;1.00
18690;DHT22;9782;52.930;15.562;2022-07-24T04:57:43;27.20;1.00
18690;DHT22;9782;52.930;15.562;2022-07-24T05:00:12;27.50;1.00
18690;DHT22;9782;52.930;15.562;2022-07-24T05:02:40;27.70;1.00
18690;DHT22;9782;52.930;15.562;2022-07-24T05:05:08;28.00;1.00
18690;DHT22;9782;52.930;15.562;2022-07-24T05:08:00;28.30;99.90
18690;DHT22;9782;52.930;15.562;2022-07-24T05:10:32;28.60;99.90
18690;DHT22;9782;52.930;15.562;2022-07-24T05:13:00;29.00;99.90
18690;DHT22;9782;52.930;15.562;2022-07-24T05:15:27;29.30;99.90
18690;DHT22;9782;52.930;15.562;2022-07-24T05:17:55;29.50;99.90
18690;DHT22;9782;52.930;15.562;2022-07-24T05:20:22;29.80;99.90
18690;DHT22;9782;52.930;15.562;2022-07-24T05:22:49;30.20;99.90
18690;DHT22;9782;52.930;15.562;2022-07-24T05:25:16;30.40;99.90
18690;DHT22;9782;52.930;15.562;2022-07-24T05:27:45;30.70;99.90
18690;DHT22;9782;52.930;15.562;2022-07-24T05:30:12;30.90;99.90
18690;DHT22;9782;52.930;15.562;2022-07-24T05:32:43;31.20;99.90
18690;DHT22;9782;52.930;15.562;2022-07-24T05:35:13;31.50;99.90
18690;DHT22;9782;52.930;15.562;2022-07-24T05:37:46;31.90;99.90
18690;DHT22;9782;52.930;15.562;2022-07-24T05:40:13;32.30;99.90
18690;DHT22;9782;52.930;15.562;2022-07-24T05:42:41;32.60;99.90
18690;DHT22;9782;52.930;15.562;2022-07-24T05:45:22;33.00;99.90
18690;DHT22;9782;52.930;15.562;2022-07-24T05:47:49;33.30;99.90
18690;DHT22;9782;52.930;15.562;2022-07-24T05:50:16;33.60;99.90
18690;DHT22;9782;52.930;15.562;2022-07-24T05:52:44;33.70;99.90
18690;DHT22;9782;52.930;15.562;2022-07-24T05:55:11;33.60;99.90
18690;DHT22;9782;52.930;15.562;2022-07-24T05:57:38;33.40;99.90
18690;DHT22;9782;52.930;15.562;2022-07-24T06:00:06;33.40;99.90
18690;DHT22;9782;52.930;15.562;2022-07-24T06:02:41;33.40;99.90
18690;DHT22;9782;52.930;15.562;2022-07-24T06:06:26;33.50;99.90
18690;DHT22;9782;52.930;15.562;2022-07-24T06:08:25;33.60;99.90
18690;DHT22;9782;52.930;15.562;2022-07-24T06:10:55;33.60;99.90
18690;DHT22;9782;52.930;15.562;2022-07-24T06:13:33;33.30;99.90
18690;DHT22;9782;52.930;15.562;2022-07-24T06:16:11;33.30;99.90
18690;DHT22;9782;52.930;15.562;2022-07-24T06:18:53;32.60;99.90
18690;DHT22;9782;52.930;15.562;2022-07-24T06:21:20;31.80;99.90
18690;DHT22;9782;52.930;15.562;2022-07-24T06:23:47;31.40;99.90
18690;DHT22;9782;52.930;15.562;2022-07-24T06:26:35;31.60;99.90
18690;DHT22;9782;52.930;15.562;2022-07-24T06:32:30;33.50;99.90
18690;DHT22;9782;52.930;15.562;2022-07-24T06:35:21;34.00;99.90
18690;DHT22;9782;52.930;15.562;2022-07-24T06:42:07;34.00;99.90
18690;DHT22;9782;52.930;15.562;2022-07-24T06:44:38;34.60;99.90
18690;DHT22;9782;52.930;15.562;2022-07-24T06:47:06;34.00;99.90
18690;DHT22;9782;52.930;15.562;2022-07-24T06:53:07;32.50;99.90
18690;DHT22;9782;52.930;15.562;2022-07-24T06:55:34;32.10;99.90
18690;DHT22;9782;52.930;15.562;2022-07-24T06:58:01;31.80;99.90
18690;DHT22;9782;52.930;15.562;2022-07-24T07:00:38;31.90;99.90
18690;DHT22;9782;52.930;15.562;2022-07-24T07:03:15;31.60;99.90
18690;DHT22;9782;52.930;15.562;2022-07-24T07:05:42;31.80;99.90
18690;DHT22;9782;52.930;15.562;2022-07-24T07:08:11;31.90;99.90
18690;DHT22;9782;52.930;15.562;2022-07-24T07:10:38;32.20;99.90
18690;DHT22;9782;52.930;15.562;2022-07-24T07:13:05;32.00;99.90
18690;DHT22;9782;52.930;15.562;2022-07-24T07:15:32;31.40;99.90
18690;DHT22;9782;52.930;15.562;2022-07-24T07:17:59;30.50;99.90
18690;DHT22;9782;52.930;15.562;2022-07-24T07:20:26;30.30;99.90
18690;DHT22;9782;52.930;15.562;2022-07-24T07:22:53;30.60;99.90
18690;DHT22;9782;52.930;15.562;2022-07-24T07:25:21;30.60;99.90
18690;DHT22;9782;52.930;15.562;2022-07-24T07:27:49;30.10;99.90
18690;DHT22;9782;52.930;15.562;2022-07-24T07:30:16;29.70;99.90
18690;DHT22;9782;52.930;15.562;2022-07-24T07:32:43;29.30;99.90
18690;DHT22;9782;52.930;15.562;2022-07-24T07:35:10;29.30;99.90
18690;DHT22;9782;52.930;15.562;2022-07-24T07:37:37;30.30;99.90
18690;DHT22;9782;52.930;15.562;2022-07-24T07:40:06;31.30;99.90
18690;DHT22;9782;52.930;15.562;2022-07-24T07:42:34;31.60;99.90
18690;DHT22;9782;52.930;15.562;2022-07-24T07:45:02;31.20;99.90
18690;DHT22;9782;52.930;15.562;2022-07-24T07:47:55;30.30;99.90
18690;DHT22;9782;52.930;15.562;2022-07-24T07:50:31;29.30;99.90
18690;DHT22;9782;52.930;15.562;2022-07-24T07:53:05;28.50;99.90
18690;DHT22;9782;52.930;15.562;2022-07-24T07:55:49;27.90;99.90
18690;DHT22;9782;52.930;15.562;2022-07-24T07:58:39;27.40;99.90
18690;DHT22;9782;52.930;15.562;2022-07-24T08:01:15;26.80;99.90
18690;DHT22;9782;52.930;15.562;2022-07-24T08:04:19;26.20;99.90
18690;DHT22;9782;52.930;15.562;2022-07-24T08:06:40;25.80;99.90
18690;DHT22;9782;52.930;15.562;2022-07-24T08:12:30;25.40;99.90
18690;DHT22;9782;52.930;15.562;2022-07-24T08:15:06;25.30;99.90
18690;DHT22;9782;52.930;15.562;2022-07-24T08:17:39;25.20;99.90
18690;DHT22;9782;52.930;15.562;2022-07-24T08:20:12;25.10;99.90
18690;DHT22;9782;52.930;15.562;2022-07-24T08:22:39;25.20;99.90
18690;DHT22;9782;52.930;15.562;2022-07-24T08:28:19;26.40;99.90
18690;DHT22;9782;52.930;15.562;2022-07-24T08:30:50;27.80;99.90
18690;DHT22;9782;52.930;15.562;2022-07-24T08:33:29;28.70;99.90
18690;DHT22;9782;52.930;15.562;2022-07-24T08:36:25;29.90;99.90
18690;DHT22;9782;52.930;15.562;2022-07-24T08:39:06;31.10;99.90
18690;DHT22;9782;52.930;15.562;2022-07-24T08:41:34;32.20;99.90
18690;DHT22;9782;52.930;15.562;2022-07-24T08:44:02;33.00;99.90
18690;DHT22;9782;52.930;15.562;2022-07-24T08:46:31;33.20;99.90
18690;DHT22;9782;52.930;15.562;2022-07-24T08:48:59;33.10;99.90
18690;DHT22;9782;52.930;15.562;2022-07-24T08:51:31;33.60;99.90
18690;DHT22;9782;52.930;15.562;2022-07-24T08:54:17;34.40;99.90
18690;DHT22;9782;52.930;15.562;2022-07-24T08:56:45;34.90;99.90
18690;DHT22;9782;52.930;15.562;2022-07-24T08:59:16;35.50;99.90
18690;DHT22;9782;52.930;15.562;2022-07-24T09:01:47;36.20;99.90
18690;DHT22;9782;52.930;15.562;2022-07-24T09:04:34;36.80;99.90
18690;DHT22;9782;52.930;15.562;2022-07-24T09:07:07;37.20;99.90
18690;DHT22;9782;52.930;15.562;2022-07-24T09:09:36;37.50;99.90
18690;DHT22;9782;52.930;15.562;2022-07-24T09:12:08;37.80;99.90
18690;DHT22;9782;52.930;15.562;2022-07-24T09:14:37;37.80;99.90
18690;DHT22;9782;52.930;15.562;2022-07-24T09:17:08;37.80;99.90
18690;DHT22;9782;52.930;15.562;2022-07-24T09:19:46;37.90;99.90
18690;DHT22;9782;52.930;15.562;2022-07-24T09:22:23;37.80;99.90
18690;DHT22;9782;52.930;15.562;2022-07-24T09:25:07;38.00;99.90
18690;DHT22;9782;52.930;15.562;2022-07-24T09:27:35;37.80;99.90
18690;DHT22;9782;52.930;15.562;2022-07-24T09:30:07;37.40;99.90
18690;DHT22;9782;52.930;15.562;2022-07-24T09:32:39;37.20;99.90
18690;DHT22;9782;52.930;15.562;2022-07-24T09:35:07;37.00;99.90
18690;DHT22;9782;52.930;15.562;2022-07-24T09:37:53;36.70;99.90
18690;DHT22;9782;52.930;15.562;2022-07-24T09:40:32;36.30;99.90
18690;DHT22;9782;52.930;15.562;2022-07-24T09:43:20;36.20;99.90
18690;DHT22;9782;52.930;15.562;2022-07-24T09:45:53;35.70;99.90
18690;DHT22;9782;52.930;15.562;2022-07-24T09:48:23;35.10;99.90
18690;DHT22;9782;52.930;15.562;2022-07-24T09:50:51;34.30;99.90
18690;DHT22;9782;52.930;15.562;2022-07-24T09:53:21;33.60;99.90
18690;DHT22;9782;52.930;15.562;2022-07-24T09:56:04;33.20;99.90
18690;DHT22;9782;52.930;15.562;2022-07-24T09:58:34;32.80;99.90
18690;DHT22;9782;52.930;15.562;2022-07-24T10:01:06;32.50;99.90
18690;DHT22;9782;52.930;15.562;2022-07-24T10:03:43;32.30;99.90
18690;DHT22;9782;52.930;15.562;2022-07-24T10:06:18;32.00;99.90
18690;DHT22;9782;52.930;15.562;2022-07-24T10:08:48;31.70;99.90
18690;DHT22;9782;52.930;15.562;2022-07-24T10:11:16;31.30;99.90
18690;DHT22;9782;52.930;15.562;2022-07-24T10:13:44;31.10;99.90
18690;DHT22;9782;52.930;15.562;2022-07-24T10:16:33;30.90;99.90
18690;DHT22;9782;52.930;15.562;2022-07-24T10:19:07;30.70;99.90
18690;DHT22;9782;52.930;15.562;2022-07-24T10:21:38;30.50;99.90
18690;DHT22;9782;52.930;15.562;2022-07-24T10:27:24;30.10;99.90
18690;DHT22;9782;52.930;15.562;2022-07-24T10:29:53;30.00;99.90
18690;DHT22;9782;52.930;15.562;2022-07-24T10:32:21;29.90;99.90
18690;DHT22;9782;52.930;15.562;2022-07-24T10:34:55;29.80;99.90
18690;DHT22;9782;52.930;15.562;2022-07-24T10:37:31;29.70;99.90
18690;DHT22;9782;52.930;15.562;2022-07-24T10:40:24;29.70;99.90
18690;DHT22;9782;52.930;15.562;2022-07-24T10:43:12;29.60;99.90
18690;DHT22;9782;52.930;15.562;2022-07-24T10:45:40;29.50;99.90
18690;DHT22;9782;52.930;15.562;2022-07-24T10:48:28;29.50;99.90
18690;DHT22;9782;52.930;15.562;2022-07-24T10:51:30;29.30;99.90
18690;DHT22;9782;52.930;15.562;2022-07-24T11:00:40;29.10;99.90
18690;DHT22;9782;52.930;15.562;2022-07-24T11:03:25;29.00;99.90
18690;DHT22;9782;52.930;15.562;2022-07-24T11:09:41;28.80;99.90
18690;DHT22;9782;52.930;15.562;2022-07-24T11:12:31;28.50;99.90
18690;DHT22;9782;52.930;15.562;2022-07-24T11:15:07;28.40;99.90
18690;DHT22;9782;52.930;15.562;2022-07-24T11:18:13;28.30;99.90
18690;DHT22;9782;52.930;15.562;2022-07-24T11:20:41;28.20;99.90
18690;DHT22;9782;52.930;15.562;2022-07-24T11:26:36;28.10;99.90
18690;DHT22;9782;52.930;15.562;2022-07-24T11:29:13;28.00;99.90
18690;DHT22;9782;52.930;15.562;2022-07-24T11:31:41;28.10;99.90
18690;DHT22;9782;52.930;15.562;2022-07-24T11:34:14;28.10;99.90
18690;DHT22;9782;52.930;15.562;2022-07-24T11:36:52;28.20;99.90
18690;DHT22;9782;52.930;15.562;2022-07-24T11:39:27;28.20;99.90
18690;DHT22;9782;52.930;15.562;2022-07-24T11:41:56;28.20;99.90
18690;DHT22;9782;52.930;15.562;2022-07-24T11:44:26;28.20;99.90
18690;DHT22;9782;52.930;15.562;2022-07-24T11:46:54;28.30;99.90
18690;DHT22;9782;52.930;15.562;2022-07-24T11:49:24;28.20;99.90
18690;DHT22;9782;52.930;15.562;2022-07-24T11:51:56;28.20;99.90
18690;DHT22;9782;52.930;15.562;2022-07-24T11:54:35;28.10;99.90
18690;DHT22;9782;52.930;15.562;2022-07-24T11:57:03;28.10;99.90
18690;DHT22;9782;52.930;15.562;2022-07-24T11:59:35;28.10;99.90
18690;DHT22;9782;52.930;15.562;2022-07-24T12:02:10;28.20;99.90
18690;DHT22;9782;52.930;15.562;2022-07-24T12:04:38;28.20;99.90
18690;DHT22;9782;52.930;15.562;2022-07-24T12:07:06;28.10;99.90
18690;DHT22;9782;52.930;15.562;2022-07-24T12:09:43;28.10;99.90
18690;DHT22;9782;52.930;15.562;2022-07-24T12:12:22;28.00;99.90
18690;DHT22;9782;52.930;15.562;2022-07-24T12:15:02;28.00;99.90
18690;DHT22;9782;52.930;15.562;2022-07-24T12:17:30;28.00;99.90
18690;DHT22;9782;52.930;15.562;2022-07-24T12:20:00;28.20;99.90
18690;DHT22;9782;52.930;15.562;2022-07-24T12:22:30;28.20;99.90
18690;DHT22;9782;52.930;15.562;2022-07-24T12:25:02;28.20;99.90
18690;DHT22;9782;52.930;15.562;2022-07-24T12:27:34;28.10;99.90
18690;DHT22;9782;52.930;15.562;2022-07-24T12:30:20;28.00;99.90
18690;DHT22;9782;52.930;15.562;2022-07-24T12:33:20;28.00;99.90
18690;DHT22;9782;52.930;15.562;2022-07-24T12:35:56;28.10;99.90
18690;DHT22;9782;52.930;15.562;2022-07-24T12:38:25;28.20;99.90
18690;DHT22;9782;52.930;15.562;2022-07-24T12:41:03;28.20;99.90
18690;DHT22;9782;52.930;15.562;2022-07-24T12:43:31;28.20;99.90
18690;DHT22;9782;52.930;15.562;2022-07-24T12:46:05;28.30;99.90
18690;DHT22;9782;52.930;15.562;2022-07-24T12:48:33;28.30;99.90
18690;DHT22;9782;52.930;15.562;2022-07-24T12:51:03;28.30;99.90
18690;DHT22;9782;52.930;15.562;2022-07-24T12:53:33;28.30;99.90
18690;DHT22;9782;52.930;15.562;2022-07-24T12:56:32;28.20;99.90
18690;DHT22;9782;52.930;15.562;2022-07-24T12:59:01;28.20;99.90
18690;DHT22;9782;52.930;15.562;2022-07-24T13:01:51;28.00;99.90
18690;DHT22;9782;52.930;15.562;2022-07-24T13:04:19;28.00;99.90
18690;DHT22;9782;52.930;15.562;2022-07-24T13:06:55;28.00;99.90
18690;DHT22;9782;52.930;15.562;2022-07-24T13:09:26;28.10;99.90
18690;DHT22;9782;52.930;15.562;2022-07-24T13:11:56;28.10;99.90
18690;DHT22;9782;52.930;15.562;2022-07-24T13:14:24;28.10;99.90
18690;DHT22;9782;52.930;15.562;2022-07-24T13:17:00;28.00;99.90
18690;DHT22;9782;52.930;15.562;2022-07-24T13:19:30;28.00;99.90
18690;DHT22;9782;52.930;15.562;2022-07-24T13:21:57;28.00;99.90
18690;DHT22;9782;52.930;15.562;2022-07-24T13:24:24;28.00;99.90
18690;DHT22;9782;52.930;15.562;2022-07-24T13:26:52;27.90;99.90
18690;DHT22;9782;52.930;15.562;2022-07-24T13:29:21;27.90;99.90
18690;DHT22;9782;52.930;15.562;2022-07-24T13:31:49;27.90;99.90
18690;DHT22;9782;52.930;15.562;2022-07-24T13:34:17;27.90;99.90
18690;DHT22;9782;52.930;15.562;2022-07-24T13:36:45;28.00;99.90
18690;DHT22;9782;52.930;15.562;2022-07-24T13:39:16;28.10;99.90
18690;DHT22;9782;52.930;15.562;2022-07-24T13:41:43;28.20;99.90
18690;DHT22;9782;52.930;15.562;2022-07-24T13:44:10;28.20;99.90
18690;DHT22;9782;52.930;15.562;2022-07-24T13:46:48;28.30;99.90
18690;DHT22;9782;52.930;15.562;2022-07-24T13:49:15;28.40;99.90
18690;DHT22;9782;52.930;15.562;2022-07-24T13:51:44;28.40;99.90
18690;DHT22;9782;52.930;15.562;2022-07-24T13:54:16;28.40;99.90
18690;DHT22;9782;52.930;15.562;2022-07-24T13:56:43;28.50;99.90
18690;DHT22;9782;52.930;15.562;2022-07-24T13:59:13;28.50;99.90
18690;DHT22;9782;52.930;15.562;2022-07-24T14:01:47;28.40;99.90
18690;DHT22;9782;52.930;15.562;2022-07-24T14:04:29;28.40;99.90
18690;DHT22;9782;52.930;15.562;2022-07-24T14:06:57;28.40;99.90
18690;DHT22;9782;52.930;15.562;2022-07-24T14:09:25;28.40;99.90
18690;DHT22;9782;52.930;15.562;2022-07-24T14:11:54;28.40;99.90
18690;DHT22;9782;52.930;15.562;2022-07-24T14:14:21;28.50;99.90
18690;DHT22;9782;52.930;15.562;2022-07-24T14:16:48;28.50;99.90
18690;DHT22;9782;52.930;15.562;2022-07-24T14:19:15;28.50;99.90
18690;DHT22;9782;52.930;15.562;2022-07-24T14:21:46;28.40;99.90
18690;DHT22;9782;52.930;15.562;2022-07-24T14:24:14;28.40;99.90
18690;DHT22;9782;52.930;15.562;2022-07-24T14:26:41;28.30;99.90
18690;DHT22;9782;52.930;15.562;2022-07-24T14:29:09;28.30;99.90
18690;DHT22;9782;52.930;15.562;2022-07-24T14:31:36;28.30;99.90
18690;DHT22;9782;52.930;15.562;2022-07-24T14:34:03;28.20;99.90
18690;DHT22;9782;52.930;15.562;2022-07-24T14:36:30;28.20;99.90
18690;DHT22;9782;52.930;15.562;2022-07-24T14:38:59;28.20;99.90
18690;DHT22;9782;52.930;15.562;2022-07-24T14:41:26;28.20;99.90
18690;DHT22;9782;52.930;15.562;2022-07-24T14:43:54;28.10;99.90
18690;DHT22;9782;52.930;15.562;2022-07-24T14:46:21;28.10;99.90
18690;DHT22;9782;52.930;15.562;2022-07-24T14:48:48;28.00;99.90
18690;DHT22;9782;52.930;15.562;2022-07-24T14:51:15;28.00;99.90
18690;DHT22;9782;52.930;15.562;2022-07-24T14:53:42;28.00;99.90
18690;DHT22;9782;52.930;15.562;2022-07-24T14:56:10;28.00;99.90
18690;DHT22;9782;52.930;15.562;2022-07-24T14:58:38;28.00;99.90
18690;DHT22;9782;52.930;15.562;2022-07-24T15:01:06;28.00;99.90
18690;DHT22;9782;52.930;15.562;2022-07-24T15:03:33;28.00;99.90
18690;DHT22;9782;52.930;15.562;2022-07-24T15:06:00;27.90;99.90
18690;DHT22;9782;52.930;15.562;2022-07-24T15:08:27;27.90;99.90
18690;DHT22;9782;52.930;15.562;2022-07-24T15:10:54;27.90;99.90
18690;DHT22;9782;52.930;15.562;2022-07-24T15:13:22;27.80;99.90
18690;DHT22;9782;52.930;15.562;2022-07-24T15:15:49;27.70;99.90
18690;DHT22;9782;52.930;15.562;2022-07-24T15:18:17;27.60;99.90
18690;DHT22;9782;52.930;15.562;2022-07-24T15:20:44;27.50;99.90
18690;DHT22;9782;52.930;15.562;2022-07-24T15:23:11;27.50;99.90
18690;DHT22;9782;52.930;15.562;2022-07-24T15:25:38;27.40;99.90
18690;DHT22;9782;52.930;15.562;2022-07-24T15:28:05;27.40;99.90
18690;DHT22;9782;52.930;15.562;2022-07-24T15:30:33;27.30;99.90
18690;DHT22;9782;52.930;15.562;2022-07-24T15:33:00;27.30;99.90
18690;DHT22;9782;52.930;15.562;2022-07-24T15:35:28;27.30;99.90
18690;DHT22;9782;52.930;15.562;2022-07-24T15:37:56;27.30;99.90
18690;DHT22;9782;52.930;15.562;2022-07-24T15:40:23;27.30;99.90
18690;DHT22;9782;52.930;15.562;2022-07-24T15:42:52;27.30;99.90
18690;DHT22;9782;52.930;15.562;2022-07-24T15:45:20;27.30;99.90
18690;DHT22;9782;52.930;15.562;2022-07-24T15:47:49;27.30;99.90
18690;DHT22;9782;52.930;15.562;2022-07-24T15:50:17;27.30;99.90
18690;DHT22;9782;52.930;15.562;2022-07-24T15:52:44;27.30;99.90
18690;DHT22;9782;52.930;15.562;2022-07-24T15:55:11;27.30;99.90
18690;DHT22;9782;52.930;15.562;2022-07-24T15:57:38;27.20;99.90
18690;DHT22;9782;52.930;15.562;2022-07-24T16:00:07;27.20;99.90
18690;DHT22;9782;52.930;15.562;2022-07-24T16:02:34;27.20;99.90
18690;DHT22;9782;52.930;15.562;2022-07-24T16:05:04;27.10;99.90
18690;DHT22;9782;52.930;15.562;2022-07-24T16:07:32;27.00;99.90
18690;DHT22;9782;52.930;15.562;2022-07-24T16:09:59;27.00;99.90
18690;DHT22;9782;52.930;15.562;2022-07-24T16:12:26;27.00;99.90
18690;DHT22;9782;52.930;15.562;2022-07-24T16:14:53;26.90;99.90
18690;DHT22;9782;52.930;15.562;2022-07-24T16:17:20;26.90;99.90
18690;DHT22;9782;52.930;15.562;2022-07-24T16:19:47;26.80;99.90
18690;DHT22;9782;52.930;15.562;2022-07-24T16:22:16;26.80;99.90
18690;DHT22;9782;52.930;15.562;2022-07-24T16:24:43;26.80;99.90
18690;DHT22;9782;52.930;15.562;2022-07-24T16:27:10;26.70;99.90
18690;DHT22;9782;52.930;15.562;2022-07-24T16:29:37;26.60;99.90
18690;DHT22;9782;52.930;15.562;2022-07-24T16:32:04;26.60;99.90
18690;DHT22;9782;52.930;15.562;2022-07-24T16:34:32;26.60;99.90